createdAt,value
2022-12-11T00:00:12.795Z,3.75
2022-12-11T00:03:17.130Z,3.53
2022-12-11T00:06:21.860Z,3.42
2022-12-11T00:09:24.165Z,3.13
2022-12-11T00:12:26.345Z,3.30
2022-12-11T00:15:29.835Z,3.67
2022-12-11T00:18:32.619Z,3.30
2022-12-11T00:21:35.812Z,3.05
2022-12-11T00:24:38.803Z,2.77
2022-12-11T00:27:41.903Z,2.90
2022-12-11T00:30:45.297Z,2.97
2022-12-11T00:33:51.462Z,2.75
2022-12-11T00:36:54.342Z,2.55
2022-12-11T00:39:57.435Z,2.70
2022-12-11T00:43:00.435Z,2.40
2022-12-11T00:46:04.075Z,2.45
2022-12-11T00:49:07.136Z,2.55
2022-12-11T00:52:11.148Z,2.67
2022-12-11T00:55:14.347Z,2.30
2022-12-11T00:58:17.336Z,4.20
2022-12-11T01:01:22.514Z,4.72
2022-12-11T01:04:25.365Z,5.68
2022-12-11T01:07:29.071Z,5.35
2022-12-11T01:10:32.709Z,5.63
2022-12-11T01:13:35.770Z,5.27
2022-12-11T01:16:39.033Z,5.70
2022-12-11T01:19:41.955Z,6.43
2022-12-11T01:22:44.450Z,6.35
2022-12-11T01:25:46.627Z,6.50
2022-12-11T01:28:51.091Z,7.07
2022-12-11T01:31:53.513Z,6.57
2022-12-11T01:34:55.715Z,7.63
2022-12-11T01:37:57.974Z,7.93
2022-12-11T01:41:00.243Z,6.13
2022-12-11T01:44:06.401Z,6.50
2022-12-11T01:47:08.646Z,6.20
2022-12-11T01:50:11.384Z,7.10
2022-12-11T01:53:17.801Z,7.55
2022-12-11T01:56:20.299Z,7.13
2022-12-11T01:59:27.412Z,7.20
2022-12-11T02:02:30.993Z,6.80
2022-12-11T02:05:33.281Z,7.68
2022-12-11T02:08:35.501Z,7.70
2022-12-11T02:11:47.542Z,6.73
2022-12-11T02:14:55.475Z,6.43
2022-12-11T02:18:11.989Z,6.05
2022-12-11T02:21:24.299Z,6.28
2022-12-11T02:24:55.462Z,5.72
2022-12-11T02:28:26.802Z,5.60
2022-12-11T02:31:32.875Z,4.67
2022-12-11T02:34:42.332Z,5.32
2022-12-11T02:37:45.594Z,4.85
2022-12-11T02:40:49.778Z,4.28
2022-12-11T02:43:52.720Z,4.70
2022-12-11T02:46:55.360Z,4.47
2022-12-11T02:49:58.464Z,4.13
2022-12-11T02:53:02.188Z,4.45
2022-12-11T02:56:12.674Z,3.85
2022-12-11T02:59:18.573Z,3.70
2022-12-11T03:02:20.952Z,3.67
2022-12-11T03:05:23.322Z,3.40
2022-12-11T03:08:25.551Z,2.85
2022-12-11T03:11:27.830Z,3.20
2022-12-11T03:14:29.995Z,3.27
2022-12-11T03:17:41.331Z,3.30
2022-12-11T03:21:05.706Z,2.88
2022-12-11T03:24:39.505Z,2.50
2022-12-11T03:27:48.290Z,2.10
2022-12-11T03:30:52.194Z,2.43
2022-12-11T03:33:56.630Z,2.00
2022-12-11T03:37:00.223Z,2.30
2022-12-11T03:40:07.273Z,1.90
2022-12-11T03:43:11.385Z,1.63
2022-12-11T03:46:17.388Z,1.70
2022-12-11T03:49:24.228Z,1.63
2022-12-11T03:52:27.657Z,1.80
2022-12-11T03:55:30.835Z,1.30
2022-12-11T03:58:33.406Z,1.30
2022-12-11T04:01:35.655Z,1.67
2022-12-11T04:04:39.615Z,2.07
2022-12-11T04:07:41.867Z,1.60
2022-12-11T04:10:44.586Z,1.52
2022-12-11T04:14:06.757Z,1.65
2022-12-11T04:17:09.049Z,1.43
2022-12-11T04:20:30.483Z,1.57
2022-12-11T04:23:51.707Z,1.27
2022-12-11T04:26:54.698Z,1.58
2022-12-11T04:29:57.790Z,1.58
2022-12-11T04:33:00.883Z,1.30
2022-12-11T04:36:04.384Z,1.40
2022-12-11T04:39:07.172Z,1.50
2022-12-11T04:42:10.163Z,1.80
2022-12-11T04:45:13.837Z,1.65
2022-12-11T04:48:17.373Z,1.37
2022-12-11T04:51:20.877Z,1.70
2022-12-11T04:54:23.863Z,1.30
2022-12-11T04:57:26.754Z,1.40
2022-12-11T05:00:29.193Z,1.10
2022-12-11T05:03:31.360Z,1.63
2022-12-11T05:06:33.567Z,1.50
2022-12-11T05:09:36.440Z,1.20
2022-12-11T05:12:38.664Z,1.63
2022-12-11T05:15:40.871Z,1.25
2022-12-11T05:18:43.248Z,1.40
2022-12-11T05:21:45.489Z,1.30
2022-12-11T05:24:47.706Z,0.98
2022-12-11T05:27:49.965Z,1.30
2022-12-11T05:31:02.603Z,1.20
2022-12-11T05:34:05.058Z,1.30
2022-12-11T05:37:08.014Z,1.57
2022-12-11T05:40:13.144Z,1.70
2022-12-11T05:43:16.342Z,1.85
2022-12-11T05:46:24.510Z,1.60
2022-12-11T05:49:30.811Z,1.63
2022-12-11T05:52:33.468Z,2.00
2022-12-11T05:55:35.877Z,1.80
2022-12-11T05:58:38.205Z,1.88
2022-12-11T06:01:42.377Z,1.73
2022-12-11T06:04:44.700Z,1.50
2022-12-11T06:07:47.021Z,1.90
2022-12-11T06:10:50.494Z,1.70
2022-12-11T06:13:53.164Z,1.90
2022-12-11T06:16:55.339Z,1.52
2022-12-11T06:19:57.547Z,1.73
2022-12-11T06:23:02.378Z,1.47
2022-12-11T06:26:04.850Z,1.55
2022-12-11T06:29:10.989Z,1.77
2022-12-11T06:32:15.405Z,2.10
2022-12-11T06:35:17.733Z,2.33
2022-12-11T06:38:19.894Z,1.80
2022-12-11T06:41:22.112Z,2.20
2022-12-11T06:44:25.061Z,2.97
2022-12-11T06:47:28.067Z,2.72
2022-12-11T06:50:30.311Z,3.07
2022-12-11T06:53:32.526Z,2.97
2022-12-11T06:56:34.976Z,3.17
2022-12-11T06:59:37.274Z,2.58
2022-12-11T07:02:39.540Z,3.35
2022-12-11T07:05:41.830Z,3.50
2022-12-11T07:08:44.404Z,3.40
2022-12-11T07:11:46.600Z,3.53
2022-12-11T07:14:48.834Z,3.70
2022-12-11T07:17:51.209Z,3.65
2022-12-11T07:20:53.517Z,3.53
2022-12-11T07:23:55.702Z,4.50
2022-12-11T07:26:58.198Z,4.47
2022-12-11T07:30:00.405Z,4.40
2022-12-11T07:33:02.593Z,3.92
2022-12-11T07:36:06.524Z,4.10
2022-12-11T07:39:09.205Z,4.20
2022-12-11T07:42:11.583Z,4.00
2022-12-11T07:45:14.087Z,3.47
2022-12-11T07:48:16.409Z,3.95
2022-12-11T07:51:28.122Z,3.90
2022-12-11T07:54:30.451Z,4.20
2022-12-11T07:57:32.652Z,4.32
2022-12-11T08:00:34.842Z,4.30
2022-12-11T08:03:37.216Z,3.92
2022-12-11T08:06:40.384Z,4.07
2022-12-11T08:09:42.560Z,3.77
2022-12-11T08:12:44.806Z,3.60
2022-12-11T08:15:47.037Z,3.47
2022-12-11T08:18:49.631Z,3.90
2022-12-11T08:21:52.483Z,3.33
2022-12-11T08:24:54.947Z,3.80
2022-12-11T08:27:57.115Z,3.00
2022-12-11T08:31:00.336Z,3.30
2022-12-11T08:34:02.639Z,2.97
2022-12-11T08:37:04.944Z,2.73
2022-12-11T08:40:08.105Z,2.87
2022-12-11T08:43:10.253Z,2.58
2022-12-11T08:46:13.153Z,2.90
2022-12-11T08:49:15.318Z,3.00
2022-12-11T08:52:17.586Z,3.03
2022-12-11T08:55:22.036Z,2.90
2022-12-11T08:58:24.279Z,2.58
2022-12-11T09:01:27.576Z,2.90
2022-12-11T09:04:30.069Z,2.40
2022-12-11T09:07:32.401Z,2.90
2022-12-11T09:10:34.604Z,3.80
2022-12-11T09:13:37.126Z,2.10
2022-12-11T09:16:43.136Z,2.80
2022-12-11T09:19:45.574Z,2.65
2022-12-11T09:22:47.764Z,2.00
2022-12-11T09:25:49.990Z,2.87
2022-12-11T09:28:53.473Z,2.30
2022-12-11T09:31:55.639Z,2.35
2022-12-11T09:34:57.818Z,2.28
2022-12-11T09:37:59.982Z,2.20
2022-12-11T09:41:03.255Z,2.57
2022-12-11T09:44:11.215Z,4.93
2022-12-11T09:47:25.235Z,11.18
2022-12-11T09:50:32.896Z,2.38
2022-12-11T09:53:36.774Z,5.57
2022-12-11T09:56:39.034Z,3.60
2022-12-11T10:00:04.414Z,3.20
2022-12-11T10:03:08.834Z,2.75
2022-12-11T10:06:32.372Z,3.28
2022-12-11T10:09:51.719Z,2.00
2022-12-11T10:13:15.838Z,5.80
2022-12-11T10:16:33.138Z,12.02
2022-12-11T10:19:41.518Z,4.90
2022-12-11T10:22:45.190Z,3.28
2022-12-11T10:26:07.253Z,2.20
2022-12-11T10:29:14.777Z,2.20
2022-12-11T10:32:33.261Z,1.75
2022-12-11T10:35:41.484Z,2.08
2022-12-11T10:38:45.360Z,2.10
2022-12-11T10:41:50.559Z,1.50
2022-12-11T10:44:58.182Z,2.73
2022-12-11T10:48:18.470Z,1.98
2022-12-11T10:51:33.609Z,2.10
2022-12-11T10:54:41.110Z,1.88
2022-12-11T10:57:43.467Z,2.60
2022-12-11T11:00:46.573Z,1.60
2022-12-11T11:03:58.795Z,1.80
2022-12-11T11:07:12.889Z,1.77
2022-12-11T11:10:17.960Z,1.90
2022-12-11T11:13:22.375Z,1.80
2022-12-11T11:16:25.050Z,1.53
2022-12-11T11:19:33.930Z,1.70
2022-12-11T11:22:43.184Z,2.00
2022-12-11T11:25:56.911Z,1.88
2022-12-11T11:28:59.323Z,1.90
2022-12-11T11:32:14.963Z,1.63
2022-12-11T11:35:19.809Z,1.85
2022-12-11T11:38:30.960Z,2.00
2022-12-11T11:41:44.189Z,1.70
2022-12-11T11:45:22.036Z,2.00
2022-12-11T11:48:36.432Z,1.87
2022-12-11T11:51:58.063Z,1.75
2022-12-11T11:55:10.306Z,1.83
2022-12-11T11:58:16.502Z,1.90
2022-12-11T12:01:20.639Z,1.93
2022-12-11T12:04:23.040Z,1.40
2022-12-11T12:07:28.023Z,1.60
2022-12-11T12:10:38.127Z,1.70
2022-12-11T12:13:58.785Z,1.88
2022-12-11T12:17:07.278Z,2.10
2022-12-11T12:20:21.943Z,2.20
2022-12-11T12:23:54.862Z,2.33
2022-12-11T12:27:50.070Z,2.25
2022-12-11T12:30:52.151Z,2.08
2022-12-11T12:34:25.258Z,2.50
2022-12-11T12:37:30.401Z,1.70
2022-12-11T12:40:36.189Z,2.28
2022-12-11T12:43:56.727Z,2.30
2022-12-11T12:47:10.410Z,1.92
2022-12-11T12:50:20.600Z,1.70
2022-12-11T12:53:26.043Z,2.10
2022-12-11T12:56:46.075Z,2.20
2022-12-11T12:59:54.541Z,2.20
2022-12-11T13:02:57.606Z,2.30
2022-12-11T13:06:05.950Z,2.17
2022-12-11T13:09:19.548Z,2.90
2022-12-11T13:12:33.140Z,2.40
2022-12-11T13:15:42.612Z,2.55
2022-12-11T13:18:47.618Z,2.55
2022-12-11T13:22:32.478Z,2.20
2022-12-11T13:25:55.824Z,2.53
2022-12-11T13:28:58.397Z,2.38
2022-12-11T13:32:09.774Z,2.53
2022-12-11T13:35:16.902Z,4.45
2022-12-11T13:38:20.695Z,3.33
2022-12-11T13:41:23.743Z,2.80
2022-12-11T13:44:29.096Z,2.78
2022-12-11T13:47:32.475Z,2.83
2022-12-11T13:50:35.308Z,2.70
2022-12-11T13:53:40.293Z,2.53
2022-12-11T13:57:02.560Z,2.93
2022-12-11T14:00:05.853Z,2.67
2022-12-11T14:03:08.267Z,3.50
2022-12-11T14:06:18.045Z,3.22
2022-12-11T14:09:24.512Z,3.37
2022-12-11T14:12:27.791Z,3.20
2022-12-11T14:15:31.888Z,2.90
2022-12-11T14:18:35.516Z,3.08
2022-12-11T14:21:38.054Z,3.38
2022-12-11T14:24:49.845Z,3.43
2022-12-11T14:27:56.612Z,3.20
2022-12-11T14:31:00.246Z,3.42
2022-12-11T14:34:36.214Z,3.72
2022-12-11T14:37:40.231Z,2.97
2022-12-11T14:40:45.729Z,3.40
2022-12-11T14:43:51.864Z,3.37
2022-12-11T14:47:02.021Z,3.45
2022-12-11T14:50:27.233Z,3.20
2022-12-11T14:53:34.215Z,3.83
2022-12-11T14:56:36.450Z,3.90
2022-12-11T14:59:44.942Z,3.70
2022-12-11T15:02:58.382Z,3.78
2022-12-11T15:06:01.663Z,3.47
2022-12-11T15:09:19.484Z,4.20
2022-12-11T15:12:22.145Z,3.00
2022-12-11T15:15:26.287Z,3.70
2022-12-11T15:18:34.007Z,3.45
2022-12-11T15:21:36.422Z,3.92
2022-12-11T15:24:41.460Z,4.75
2022-12-11T15:27:44.291Z,4.03
2022-12-11T15:31:02.421Z,4.10
2022-12-11T15:34:22.952Z,3.53
2022-12-11T15:37:26.599Z,4.75
2022-12-11T15:40:29.007Z,4.03
2022-12-11T15:43:35.969Z,3.93
2022-12-11T15:46:38.957Z,3.63
2022-12-11T15:49:42.959Z,4.38
2022-12-11T15:52:46.863Z,4.15
2022-12-11T15:55:49.352Z,4.63
2022-12-11T15:58:51.537Z,4.87
2022-12-11T16:01:53.831Z,5.90
2022-12-11T16:04:56.065Z,4.22
2022-12-11T16:08:01.050Z,8.65
2022-12-11T16:11:03.645Z,3.90
2022-12-11T16:14:06.450Z,4.53
2022-12-11T16:17:10.923Z,5.83
2022-12-11T16:20:13.829Z,4.78
2022-12-11T16:23:17.442Z,5.03
2022-12-11T16:26:19.872Z,4.07
2022-12-11T16:29:22.371Z,4.20
2022-12-11T16:32:24.993Z,4.13
2022-12-11T16:35:29.025Z,4.55
2022-12-11T16:38:32.136Z,3.92
2022-12-11T16:41:34.588Z,4.32
2022-12-11T16:44:40.996Z,4.20
2022-12-11T16:47:46.638Z,4.20
2022-12-11T16:50:49.586Z,4.47
2022-12-11T16:53:52.201Z,4.50
2022-12-11T16:56:54.634Z,4.35
2022-12-11T16:59:56.882Z,4.73
2022-12-11T17:02:59.598Z,4.40
2022-12-11T17:06:06.643Z,3.83
2022-12-11T17:09:10.153Z,4.50
2022-12-11T17:12:12.635Z,4.53
2022-12-11T17:15:15.414Z,4.73
2022-12-11T17:18:17.876Z,4.43
2022-12-11T17:21:22.480Z,4.40
2022-12-11T17:24:25.373Z,4.43
2022-12-11T17:27:37.304Z,4.43
2022-12-11T17:30:41.717Z,4.10
2022-12-11T17:33:47.790Z,4.57
2022-12-11T17:36:51.837Z,4.72
2022-12-11T17:39:54.839Z,3.95
2022-12-11T17:42:57.643Z,4.00
2022-12-11T17:46:00.733Z,4.97
2022-12-11T17:49:04.948Z,4.77
2022-12-11T17:52:08.324Z,4.55
2022-12-11T17:55:11.334Z,4.68
2022-12-11T17:58:16.789Z,4.13
2022-12-11T18:01:22.726Z,4.83
2022-12-11T18:04:26.070Z,4.30
2022-12-11T18:07:34.176Z,4.47
2022-12-11T18:10:38.669Z,4.93
2022-12-11T18:13:42.427Z,4.40
2022-12-11T18:16:46.790Z,4.23
2022-12-11T18:19:54.612Z,4.67
2022-12-11T18:22:59.445Z,4.68
2022-12-11T18:26:02.265Z,4.15
2022-12-11T18:29:05.192Z,4.95
2022-12-11T18:32:08.533Z,3.83
2022-12-11T18:35:13.058Z,5.03
2022-12-11T18:38:17.243Z,4.75
2022-12-11T18:41:20.727Z,4.80
2022-12-11T18:44:23.381Z,4.47
2022-12-11T18:47:26.875Z,4.20
2022-12-11T18:50:30.608Z,4.70
2022-12-11T18:53:34.775Z,4.22
2022-12-11T18:56:37.951Z,4.50
2022-12-11T18:59:41.967Z,4.22
2022-12-11T19:02:46.537Z,4.60
2022-12-11T19:05:49.489Z,3.93
2022-12-11T19:08:54.084Z,4.20
2022-12-11T19:11:57.431Z,4.63
2022-12-11T19:15:03.033Z,4.50
2022-12-11T19:18:07.596Z,4.27
2022-12-11T19:21:12.570Z,3.83
2022-12-11T19:24:22.701Z,4.30
2022-12-11T19:27:26.245Z,4.40
2022-12-11T19:30:29.326Z,4.53
2022-12-11T19:33:33.952Z,4.50
2022-12-11T19:36:38.832Z,4.40
2022-12-11T19:39:41.756Z,4.18
2022-12-11T19:42:44.732Z,4.10
2022-12-11T19:45:48.289Z,4.28
2022-12-11T19:48:54.674Z,4.50
2022-12-11T19:51:58.579Z,4.40
2022-12-11T19:55:05.059Z,4.95
2022-12-11T19:58:08.620Z,4.40
2022-12-11T20:01:25.362Z,5.13
2022-12-11T20:04:29.048Z,4.40
2022-12-11T20:07:32.566Z,6.23
2022-12-11T20:10:36.700Z,4.78
2022-12-11T20:13:40.734Z,4.60
2022-12-11T20:17:09.984Z,4.03
2022-12-11T20:20:07.602Z,4.47
2022-12-11T20:23:12.413Z,4.50
2022-12-11T20:26:23.859Z,4.45
2022-12-11T20:29:27.297Z,4.35
2022-12-11T20:32:30.705Z,3.35
2022-12-11T20:35:35.794Z,4.57
2022-12-11T20:38:40.217Z,4.80
2022-12-11T20:41:43.444Z,5.00
2022-12-11T20:44:49.260Z,5.60
2022-12-11T20:47:52.260Z,4.85
2022-12-11T20:50:55.580Z,4.83
2022-12-11T20:53:59.882Z,10.63
2022-12-11T20:57:03.174Z,4.40
2022-12-11T21:00:09.678Z,4.43
2022-12-11T21:03:12.879Z,5.00
2022-12-11T21:06:23.802Z,5.17
2022-12-11T21:09:28.180Z,4.97
2022-12-11T21:12:32.202Z,5.07
2022-12-11T21:15:39.368Z,5.45
2022-12-11T21:18:44.265Z,4.97
2022-12-11T21:21:47.342Z,5.23
2022-12-11T21:24:49.711Z,5.30
2022-12-11T21:27:52.320Z,4.50
2022-12-11T21:30:55.271Z,5.07
2022-12-11T21:33:58.411Z,4.50
2022-12-11T21:37:01.073Z,5.70
2022-12-11T21:40:04.511Z,5.80
2022-12-11T21:43:07.010Z,5.47
2022-12-11T21:46:13.915Z,4.75
2022-12-11T21:49:16.496Z,4.82
2022-12-11T21:52:18.701Z,5.70
2022-12-11T21:55:21.067Z,5.83
2022-12-11T21:58:23.214Z,5.55
2022-12-11T22:01:31.482Z,6.50
2022-12-11T22:04:33.764Z,6.22
2022-12-11T22:07:35.947Z,5.80
2022-12-11T22:10:38.161Z,6.17
2022-12-11T22:13:40.437Z,5.85
2022-12-11T22:16:43.225Z,5.28
2022-12-11T22:19:46.348Z,5.18
2022-12-11T22:22:48.564Z,4.87
2022-12-11T22:25:51.643Z,5.87
2022-12-11T22:28:54.954Z,5.10
2022-12-11T22:31:57.245Z,6.40
2022-12-11T22:34:59.524Z,6.03
2022-12-11T22:38:02.045Z,5.87
2022-12-11T22:41:22.315Z,6.27
2022-12-11T22:44:24.776Z,6.15
2022-12-11T22:47:26.981Z,6.30
2022-12-11T22:50:29.180Z,7.50
2022-12-11T22:53:31.554Z,7.07
2022-12-11T22:56:33.729Z,8.07
2022-12-11T22:59:36.661Z,7.57
2022-12-11T23:02:39.070Z,7.03
2022-12-11T23:05:41.354Z,6.72
2022-12-11T23:08:44.133Z,7.20
2022-12-11T23:11:46.438Z,7.10
2022-12-11T23:14:49.365Z,6.75
2022-12-11T23:17:51.548Z,6.82
2022-12-11T23:20:53.779Z,6.07
2022-12-11T23:23:56.857Z,7.17
2022-12-11T23:27:00.320Z,6.90
2022-12-11T23:30:02.641Z,6.07
2022-12-11T23:33:06.597Z,7.70
2022-12-11T23:36:09.127Z,6.78
2022-12-11T23:39:11.393Z,7.47
2022-12-11T23:42:14.185Z,7.10
2022-12-11T23:45:16.523Z,6.32
2022-12-11T23:48:19.059Z,7.88
2022-12-11T23:51:23.301Z,5.72
2022-12-11T23:54:25.560Z,5.33
2022-12-11T23:57:27.733Z,6.37
